createdAt,value
2023-02-28T00:00:24.568Z,-0.50
2023-02-28T00:02:26.156Z,-0.50
2023-02-28T00:04:27.861Z,-0.50
2023-02-28T00:06:29.561Z,-0.60
2023-02-28T00:08:31.487Z,-0.50
2023-02-28T00:10:33.080Z,-0.50
2023-02-28T00:12:35.147Z,-0.60
2023-02-28T00:14:39.461Z,-0.50
2023-02-28T00:16:41.023Z,-0.60
2023-02-28T00:18:42.834Z,-0.60
2023-02-28T00:20:44.450Z,-0.70
2023-02-28T00:22:47.574Z,-0.70
2023-02-28T00:24:49.211Z,-0.70
2023-02-28T00:26:50.913Z,-0.70
2023-02-28T00:28:53.653Z,-0.80
2023-02-28T00:30:55.341Z,-0.70
2023-02-28T00:32:56.969Z,-0.70
2023-02-28T00:34:58.584Z,-0.80
2023-02-28T00:37:00.143Z,-0.90
2023-02-28T00:39:01.704Z,-0.90
2023-02-28T00:41:06.421Z,-0.70
2023-02-28T00:43:08.115Z,-0.80
2023-02-28T00:45:09.906Z,-0.80
2023-02-28T00:47:11.615Z,-0.70
2023-02-28T00:49:13.434Z,-0.70
2023-02-28T00:51:15.224Z,-0.80
2023-02-28T00:53:17.059Z,-0.80
2023-02-28T00:55:19.523Z,-0.80
2023-02-28T00:57:21.284Z,-0.80
2023-02-28T00:59:23.003Z,-0.70
2023-02-28T01:01:24.614Z,-0.70
2023-02-28T01:03:26.215Z,-0.70
2023-02-28T01:05:28.013Z,-0.60
2023-02-28T01:07:29.653Z,-0.70
2023-02-28T01:09:31.278Z,-0.70
2023-02-28T01:11:33.223Z,-0.60
2023-02-28T01:13:34.825Z,-0.50
2023-02-28T01:15:36.462Z,-0.60
2023-02-28T01:17:38.092Z,-0.70
2023-02-28T01:19:39.682Z,-0.70
2023-02-28T01:21:42.685Z,-0.70
2023-02-28T01:23:44.606Z,-0.70
2023-02-28T01:25:46.430Z,-0.70
2023-02-28T01:27:47.983Z,-0.70
2023-02-28T01:29:49.650Z,-0.60
2023-02-28T01:31:51.586Z,-0.60
2023-02-28T01:33:53.343Z,-0.70
2023-02-28T01:35:58.697Z,-0.60
2023-02-28T01:38:09.505Z,-0.70
2023-02-28T01:40:17.576Z,-0.70
2023-02-28T01:42:19.186Z,-0.70
2023-02-28T01:44:39.746Z,-0.80
2023-02-28T01:46:41.352Z,-0.80
2023-02-28T01:48:44.882Z,-0.60
2023-02-28T01:50:48.752Z,-0.70
2023-02-28T01:52:51.017Z,-0.70
2023-02-28T01:54:55.065Z,-0.70
2023-02-28T01:57:05.311Z,-0.70
2023-02-28T01:59:06.864Z,-0.70
2023-02-28T02:01:08.458Z,-0.70
2023-02-28T02:03:11.803Z,-0.70
2023-02-28T02:05:15.769Z,-0.70
2023-02-28T02:07:17.325Z,-0.70
2023-02-28T02:09:18.865Z,-0.70
2023-02-28T02:11:21.730Z,-0.60
2023-02-28T02:13:23.349Z,-0.70
2023-02-28T02:15:24.880Z,-0.60
2023-02-28T02:17:37.551Z,-0.60
2023-02-28T02:19:57.938Z,-0.70
2023-02-28T02:22:10.905Z,-0.60
2023-02-28T02:24:12.406Z,-0.70
2023-02-28T02:26:27.542Z,-0.70
2023-02-28T02:28:55.311Z,-0.60
2023-02-28T02:31:04.596Z,-0.60
2023-02-28T02:33:06.235Z,-0.60
2023-02-28T02:35:14.775Z,-0.60
2023-02-28T02:37:16.469Z,-0.60
2023-02-28T02:39:22.077Z,-0.50
2023-02-28T02:41:23.705Z,-0.50
2023-02-28T02:43:35.695Z,-0.50
2023-02-28T02:45:45.823Z,-0.50
2023-02-28T02:47:48.341Z,-0.50
2023-02-28T02:49:52.547Z,-0.50
2023-02-28T02:51:55.206Z,-0.40
2023-02-28T02:53:59.596Z,-0.50
2023-02-28T02:56:02.881Z,-0.40
2023-02-28T02:58:06.417Z,-0.40
2023-02-28T03:00:09.856Z,-0.40
2023-02-28T03:02:15.260Z,-0.40
2023-02-28T03:04:21.054Z,-0.50
2023-02-28T03:06:22.651Z,-0.50
2023-02-28T03:08:24.284Z,-0.40
2023-02-28T03:10:35.788Z,-0.50
2023-02-28T03:12:48.282Z,-0.40
2023-02-28T03:14:49.849Z,-0.40
2023-02-28T03:16:55.223Z,-0.30
2023-02-28T03:19:15.418Z,-0.40
2023-02-28T03:21:24.906Z,-0.50
2023-02-28T03:23:39.411Z,-0.40
2023-02-28T03:25:44.055Z,-0.50
2023-02-28T03:27:51.439Z,-0.40
2023-02-28T03:29:59.264Z,-0.30
2023-02-28T03:32:05.162Z,-0.40
2023-02-28T03:34:17.977Z,-0.40
2023-02-28T03:36:20.824Z,-0.40
2023-02-28T03:38:22.346Z,-0.30
2023-02-28T03:40:26.108Z,-0.30
2023-02-28T03:42:29.272Z,-0.30
2023-02-28T03:44:36.193Z,-0.40
2023-02-28T03:46:40.269Z,-0.30
2023-02-28T03:48:47.004Z,-0.30
2023-02-28T03:50:50.833Z,-0.30
2023-02-28T03:53:02.106Z,-0.30
2023-02-28T03:55:08.213Z,-0.30
2023-02-28T03:57:09.937Z,-0.40
2023-02-28T03:59:18.088Z,-0.40
2023-02-28T04:01:28.502Z,-0.30
2023-02-28T04:03:30.485Z,-0.30
2023-02-28T04:05:32.396Z,-0.20
2023-02-28T04:07:34.061Z,-0.30
2023-02-28T04:09:38.508Z,-0.30
2023-02-28T04:11:41.564Z,-0.20
2023-02-28T04:13:45.122Z,-0.20
2023-02-28T04:15:48.325Z,-0.20
2023-02-28T04:17:49.869Z,-0.30
2023-02-28T04:19:51.532Z,-0.10
2023-02-28T04:21:54.009Z,-0.10
2023-02-28T04:23:55.884Z,-0.20
2023-02-28T04:25:57.505Z,-0.20
2023-02-28T04:27:59.088Z,-0.20
2023-02-28T04:30:00.675Z,-0.20
2023-02-28T04:32:02.897Z,-0.20
2023-02-28T04:34:04.794Z,-0.30
2023-02-28T04:36:08.461Z,-0.30
2023-02-28T04:38:10.039Z,-0.20
2023-02-28T04:40:11.737Z,-0.20
2023-02-28T04:42:14.248Z,-0.20
2023-02-28T04:44:16.273Z,-0.20
2023-02-28T04:46:19.306Z,-0.20
2023-02-28T04:48:22.398Z,-0.20
2023-02-28T04:50:24.110Z,-0.20
2023-02-28T04:52:25.686Z,-0.10
2023-02-28T04:54:27.237Z,-0.20
2023-02-28T04:56:28.851Z,-0.20
2023-02-28T04:58:30.820Z,-0.20
2023-02-28T05:00:32.408Z,-0.20
2023-02-28T05:02:35.514Z,-0.10
2023-02-28T05:04:37.602Z,-0.10
2023-02-28T05:06:39.261Z,-0.10
2023-02-28T05:08:40.818Z,0.00
2023-02-28T05:10:42.476Z,-0.10
2023-02-28T05:12:44.013Z,0.00
2023-02-28T05:14:45.572Z,0.10
2023-02-28T05:16:47.164Z,0.00
2023-02-28T05:18:48.865Z,0.00
2023-02-28T05:20:50.550Z,-0.10
2023-02-28T05:22:53.590Z,-0.10
2023-02-28T05:24:55.145Z,-0.10
2023-02-28T05:26:57.090Z,0.10
2023-02-28T05:28:58.658Z,0.10
2023-02-28T05:31:00.262Z,0.10
2023-02-28T05:33:01.913Z,0.00
2023-02-28T05:35:03.731Z,0.00
2023-02-28T05:37:05.773Z,0.10
2023-02-28T05:39:08.388Z,0.10
2023-02-28T05:41:10.536Z,0.10
2023-02-28T05:43:12.857Z,0.10
2023-02-28T05:45:15.799Z,0.10
2023-02-28T05:47:17.885Z,0.10
2023-02-28T05:49:19.466Z,0.10
2023-02-28T05:51:21.137Z,0.20
2023-02-28T05:53:22.801Z,0.10
2023-02-28T05:55:24.584Z,0.10
2023-02-28T05:57:26.353Z,0.10
2023-02-28T05:59:28.023Z,0.10
2023-02-28T06:01:48.996Z,0.20
2023-02-28T06:03:50.904Z,0.20
2023-02-28T06:05:52.684Z,0.30
2023-02-28T06:07:54.492Z,0.20
2023-02-28T06:09:56.072Z,0.30
2023-02-28T06:12:01.281Z,0.30
2023-02-28T06:14:03.356Z,0.20
2023-02-28T06:16:05.118Z,0.30
2023-02-28T06:18:06.793Z,0.20
2023-02-28T06:20:09.415Z,0.10
2023-02-28T06:22:11.037Z,0.20
2023-02-28T06:24:12.717Z,0.20
2023-02-28T06:26:14.340Z,0.20
2023-02-28T06:28:16.051Z,0.20
2023-02-28T06:30:17.911Z,0.30
2023-02-28T06:32:19.592Z,0.40
2023-02-28T06:34:21.242Z,0.40
2023-02-28T06:36:23.050Z,0.50
2023-02-28T06:38:24.608Z,0.40
2023-02-28T06:40:26.444Z,0.40
2023-02-28T06:42:29.622Z,0.50
2023-02-28T06:44:36.207Z,0.50
2023-02-28T06:46:39.184Z,0.50
2023-02-28T06:48:41.234Z,0.40
2023-02-28T06:50:42.819Z,0.50
2023-02-28T06:52:44.406Z,0.50
2023-02-28T06:54:46.094Z,0.70
2023-02-28T06:56:48.155Z,0.70
2023-02-28T06:58:50.532Z,0.70
2023-02-28T07:00:52.697Z,0.60
2023-02-28T07:02:56.036Z,0.60
2023-02-28T07:04:57.681Z,0.60
2023-02-28T07:06:59.310Z,0.60
2023-02-28T07:09:01.179Z,0.60
2023-02-28T07:11:02.952Z,0.50
2023-02-28T07:13:05.097Z,0.60
2023-02-28T07:15:06.958Z,0.60
2023-02-28T07:17:09.148Z,0.60
2023-02-28T07:19:10.754Z,0.50
2023-02-28T07:21:12.432Z,0.50
2023-02-28T07:23:14.010Z,0.50
2023-02-28T07:25:15.692Z,0.50
2023-02-28T07:27:24.609Z,0.60
2023-02-28T07:29:26.285Z,0.70
2023-02-28T07:31:28.390Z,0.70
2023-02-28T07:33:30.290Z,0.60
2023-02-28T07:35:32.037Z,0.70
2023-02-28T07:37:37.412Z,0.90
2023-02-28T07:39:39.129Z,0.90
2023-02-28T07:41:44.377Z,0.90
2023-02-28T07:43:46.321Z,0.80
2023-02-28T07:45:47.981Z,0.90
2023-02-28T07:47:49.567Z,0.90
2023-02-28T07:49:51.312Z,0.90
2023-02-28T07:51:52.936Z,0.90
2023-02-28T07:53:54.511Z,0.80
2023-02-28T07:55:59.869Z,0.90
2023-02-28T07:58:01.599Z,1.00
2023-02-28T08:00:07.952Z,0.90
2023-02-28T08:02:16.024Z,0.90
2023-02-28T08:04:18.337Z,0.90
2023-02-28T08:06:21.954Z,1.00
2023-02-28T08:08:23.564Z,1.00
2023-02-28T08:10:25.222Z,1.10
2023-02-28T08:12:27.119Z,1.00
2023-02-28T08:14:28.752Z,1.00
2023-02-28T08:16:30.399Z,1.10
2023-02-28T08:18:33.220Z,1.10
2023-02-28T08:20:34.866Z,1.10
2023-02-28T08:22:36.577Z,1.10
2023-02-28T08:24:38.240Z,1.20
2023-02-28T08:26:39.981Z,1.20
2023-02-28T08:28:41.684Z,1.20
2023-02-28T08:30:43.319Z,1.20
2023-02-28T08:32:45.013Z,1.30
2023-02-28T08:34:47.995Z,1.30
2023-02-28T08:36:49.782Z,1.30
2023-02-28T08:38:51.558Z,1.30
2023-02-28T08:41:00.285Z,1.40
2023-02-28T08:43:02.005Z,1.40
2023-02-28T08:45:03.937Z,1.30
2023-02-28T08:47:05.625Z,1.40
2023-02-28T08:49:07.983Z,1.40
2023-02-28T08:51:11.898Z,1.40
2023-02-28T08:53:13.471Z,1.40
2023-02-28T08:55:15.195Z,1.50
2023-02-28T08:57:16.850Z,1.50
2023-02-28T08:59:18.540Z,1.40
2023-02-28T09:01:22.434Z,1.50
2023-02-28T09:03:25.373Z,1.50
2023-02-28T09:05:27.112Z,1.60
2023-02-28T09:07:28.927Z,1.60
2023-02-28T09:09:30.624Z,1.50
2023-02-28T09:11:32.506Z,1.60
2023-02-28T09:13:34.393Z,1.60
2023-02-28T09:15:37.869Z,1.80
2023-02-28T09:17:39.537Z,1.80
2023-02-28T09:19:41.180Z,2.00
2023-02-28T09:21:42.784Z,1.80
2023-02-28T09:23:45.290Z,1.70
2023-02-28T09:25:51.336Z,1.90
2023-02-28T09:27:53.008Z,1.90
2023-02-28T09:29:54.591Z,1.90
2023-02-28T09:31:57.469Z,2.00
2023-02-28T09:34:00.178Z,2.00
2023-02-28T09:36:02.376Z,1.90
2023-02-28T09:38:04.560Z,1.90
2023-02-28T09:40:06.762Z,1.90
2023-02-28T09:42:15.053Z,2.00
2023-02-28T09:44:21.748Z,2.10
2023-02-28T09:46:29.437Z,2.30
2023-02-28T09:48:38.485Z,2.30
2023-02-28T09:50:52.234Z,2.20
2023-02-28T09:52:55.071Z,2.30
2023-02-28T09:54:57.193Z,2.40
2023-02-28T09:57:03.018Z,2.40
2023-02-28T09:59:10.928Z,2.40
2023-02-28T10:01:31.778Z,2.50
2023-02-28T10:03:37.172Z,2.40
2023-02-28T10:05:51.610Z,2.60
2023-02-28T10:08:06.905Z,2.80
2023-02-28T10:10:15.790Z,2.80
2023-02-28T10:12:17.559Z,2.60
2023-02-28T10:14:21.398Z,2.60
2023-02-28T10:16:41.137Z,2.90
2023-02-28T10:18:46.964Z,3.00
2023-02-28T10:20:49.947Z,3.10
2023-02-28T10:22:51.511Z,3.10
2023-02-28T10:24:54.883Z,3.10
2023-02-28T10:27:00.129Z,3.30
2023-02-28T10:29:01.945Z,3.50
2023-02-28T10:31:04.117Z,3.60
2023-02-28T10:33:06.061Z,3.70
2023-02-28T10:35:10.535Z,3.90
2023-02-28T10:37:12.612Z,3.90
2023-02-28T10:39:33.229Z,4.10
2023-02-28T10:41:37.225Z,4.20
2023-02-28T10:43:40.186Z,4.10
2023-02-28T10:45:56.325Z,4.20
2023-02-28T10:48:02.491Z,4.30
2023-02-28T10:50:04.291Z,4.50
2023-02-28T10:52:08.510Z,4.80
2023-02-28T10:54:17.541Z,4.80
2023-02-28T10:56:22.344Z,5.00
2023-02-28T10:58:25.123Z,5.00
2023-02-28T11:00:32.312Z,5.00
2023-02-28T11:04:37.718Z,4.50
2023-02-28T11:06:40.371Z,4.50
2023-02-28T11:08:45.998Z,4.80
2023-02-28T11:10:49.071Z,4.80
2023-02-28T11:12:53.237Z,5.00
2023-02-28T11:15:00.208Z,4.90
2023-02-28T11:17:22.504Z,4.90
2023-02-28T11:19:29.496Z,5.10
2023-02-28T11:21:34.768Z,5.10
2023-02-28T11:23:38.024Z,5.30
2023-02-28T11:25:40.006Z,5.50
2023-02-28T11:27:47.831Z,6.00
2023-02-28T11:29:49.651Z,6.50
2023-02-28T11:32:06.362Z,6.50
2023-02-28T11:34:23.776Z,6.60
2023-02-28T11:36:26.899Z,6.80
2023-02-28T11:38:28.808Z,7.10
2023-02-28T11:40:36.689Z,7.40
2023-02-28T11:43:00.435Z,7.60
2023-02-28T11:45:13.144Z,8.10
2023-02-28T11:47:15.084Z,7.90
2023-02-28T11:49:32.454Z,7.40
2023-02-28T11:51:48.774Z,7.60
2023-02-28T11:54:10.008Z,7.70
2023-02-28T11:56:18.156Z,7.00
2023-02-28T11:58:34.120Z,6.90
2023-02-28T12:00:54.922Z,7.20
2023-02-28T12:03:02.965Z,7.10
2023-02-28T12:05:26.884Z,6.80
2023-02-28T12:07:37.835Z,6.80
2023-02-28T12:09:49.929Z,7.20
2023-02-28T12:11:58.004Z,7.60
2023-02-28T12:14:07.446Z,7.90
2023-02-28T12:16:21.970Z,7.90
2023-02-28T12:18:48.266Z,8.10
2023-02-28T12:21:22.711Z,8.80
2023-02-28T12:23:27.129Z,8.60
2023-02-28T12:25:44.488Z,9.30
2023-02-28T12:27:48.036Z,9.40
2023-02-28T12:29:58.907Z,9.40
2023-02-28T12:32:06.460Z,9.50
2023-02-28T12:34:13.008Z,10.00
2023-02-28T12:36:22.747Z,10.60
2023-02-28T12:38:26.869Z,10.60
2023-02-28T12:40:40.990Z,10.30
2023-02-28T12:43:00.795Z,11.30
2023-02-28T12:45:03.735Z,10.80
2023-02-28T12:47:10.016Z,12.30
2023-02-28T12:49:15.231Z,13.70
2023-02-28T12:51:17.509Z,13.10
2023-02-28T12:53:19.318Z,13.10
2023-02-28T12:55:40.531Z,12.60
2023-02-28T12:57:42.342Z,12.80
2023-02-28T12:59:49.583Z,12.60
2023-02-28T13:02:12.366Z,13.10
2023-02-28T13:04:33.102Z,14.30
2023-02-28T13:06:34.765Z,14.30
2023-02-28T13:08:50.081Z,14.50
2023-02-28T13:10:55.520Z,14.90
2023-02-28T13:13:04.175Z,15.20
2023-02-28T13:15:17.178Z,15.90
2023-02-28T13:17:21.292Z,15.50
2023-02-28T13:19:24.434Z,14.30
2023-02-28T13:21:28.540Z,14.20
2023-02-28T13:23:48.127Z,15.50
2023-02-28T13:25:54.586Z,16.30
2023-02-28T13:28:02.018Z,14.80
2023-02-28T13:30:25.689Z,13.90
2023-02-28T13:32:27.667Z,13.80
2023-02-28T13:34:29.495Z,14.70
2023-02-28T13:36:32.780Z,14.70
2023-02-28T13:38:44.504Z,13.70
2023-02-28T13:40:46.400Z,14.70
2023-02-28T13:42:50.690Z,15.30
2023-02-28T13:45:15.483Z,15.20
2023-02-28T13:47:21.269Z,15.30
2023-02-28T13:49:34.994Z,16.20
2023-02-28T13:51:43.108Z,15.10
2023-02-28T13:54:07.090Z,13.60
2023-02-28T13:56:29.554Z,13.80
2023-02-28T13:58:50.250Z,15.10
2023-02-28T14:01:11.200Z,15.50
2023-02-28T14:03:18.775Z,14.80
2023-02-28T14:05:27.282Z,14.30
2023-02-28T14:07:36.363Z,15.30
2023-02-28T14:09:40.521Z,15.40
2023-02-28T14:11:43.186Z,14.80
2023-02-28T14:13:46.509Z,15.90
2023-02-28T14:16:08.255Z,14.50
2023-02-28T14:18:18.490Z,13.80
2023-02-28T14:20:21.278Z,14.40
2023-02-28T14:22:52.473Z,15.60
2023-02-28T14:25:18.276Z,16.20
2023-02-28T14:27:28.690Z,15.30
2023-02-28T14:29:48.431Z,16.60
2023-02-28T14:32:03.894Z,16.30
2023-02-28T14:34:22.097Z,16.00
2023-02-28T14:36:34.514Z,15.90
2023-02-28T14:38:38.462Z,15.90
2023-02-28T14:40:41.060Z,14.10
2023-02-28T14:42:47.258Z,14.70
2023-02-28T14:44:55.262Z,15.70
2023-02-28T14:46:58.524Z,15.20
2023-02-28T14:49:00.507Z,15.10
2023-02-28T14:51:02.400Z,12.10
2023-02-28T14:53:04.616Z,13.30
2023-02-28T14:55:08.866Z,14.20
2023-02-28T14:57:30.542Z,14.30
2023-02-28T14:59:33.686Z,14.10
2023-02-28T15:01:35.586Z,13.10
2023-02-28T15:03:38.696Z,13.20
2023-02-28T15:05:40.567Z,13.00
2023-02-28T15:07:42.255Z,13.20
2023-02-28T15:09:43.999Z,11.50
2023-02-28T15:11:50.822Z,12.30
2023-02-28T15:13:54.234Z,12.70
2023-02-28T15:16:04.490Z,12.40
2023-02-28T15:18:06.806Z,12.70
2023-02-28T15:20:12.930Z,13.20
2023-02-28T15:22:17.875Z,13.50
2023-02-28T15:24:34.933Z,13.40
2023-02-28T15:26:39.262Z,12.90
2023-02-28T15:28:40.860Z,12.80
2023-02-28T15:30:51.123Z,12.80
2023-02-28T15:33:06.604Z,11.70
2023-02-28T15:35:26.430Z,11.70
2023-02-28T15:37:31.756Z,11.60
2023-02-28T15:39:42.321Z,11.50
2023-02-28T15:41:45.002Z,11.20
2023-02-28T15:43:46.648Z,11.30
2023-02-28T15:45:49.871Z,11.70
2023-02-28T15:47:52.705Z,11.90
2023-02-28T15:49:55.163Z,11.60
2023-02-28T15:51:58.675Z,12.00
2023-02-28T15:54:05.692Z,11.60
2023-02-28T15:56:15.315Z,11.30
2023-02-28T15:58:16.945Z,10.70
2023-02-28T16:00:22.875Z,10.90
2023-02-28T16:02:34.961Z,10.70
2023-02-28T16:04:37.166Z,10.20
2023-02-28T16:07:01.314Z,10.00
2023-02-28T16:09:03.728Z,9.70
2023-02-28T16:11:05.473Z,9.10
2023-02-28T16:13:07.529Z,9.00
2023-02-28T16:15:10.561Z,8.70
2023-02-28T16:17:20.462Z,8.90
2023-02-28T16:19:22.550Z,8.60
2023-02-28T16:21:25.844Z,8.80
2023-02-28T16:23:27.475Z,8.70
2023-02-28T16:25:40.373Z,8.30
2023-02-28T16:27:43.433Z,8.30
2023-02-28T16:29:45.954Z,8.20
2023-02-28T16:31:47.676Z,7.80
2023-02-28T16:33:49.333Z,7.70
2023-02-28T16:35:50.974Z,7.80
2023-02-28T16:37:53.126Z,7.80
2023-02-28T16:39:54.696Z,7.50
2023-02-28T16:41:56.287Z,7.30
2023-02-28T16:44:00.926Z,6.90
2023-02-28T16:46:04.601Z,6.90
2023-02-28T16:48:06.238Z,6.60
2023-02-28T16:50:34.392Z,6.20
2023-02-28T16:52:35.956Z,6.20
2023-02-28T16:54:37.510Z,6.20
2023-02-28T16:56:41.779Z,6.10
2023-02-28T16:58:43.667Z,6.10
2023-02-28T17:00:45.335Z,5.90
2023-02-28T17:02:47.068Z,5.80
2023-02-28T17:04:48.890Z,5.70
2023-02-28T17:06:51.686Z,5.60
2023-02-28T17:08:53.498Z,5.50
2023-02-28T17:10:55.093Z,5.30
2023-02-28T17:13:06.121Z,5.10
2023-02-28T17:15:13.285Z,5.00
2023-02-28T17:17:18.801Z,4.90
2023-02-28T17:19:20.728Z,4.80
2023-02-28T17:21:22.284Z,5.00
2023-02-28T17:23:23.862Z,4.90
2023-02-28T17:25:25.580Z,4.80
2023-02-28T17:27:27.233Z,4.70
2023-02-28T17:29:28.844Z,4.80
2023-02-28T17:31:31.804Z,4.50
2023-02-28T17:33:33.465Z,4.50
2023-02-28T17:35:35.068Z,4.50
2023-02-28T17:37:36.742Z,4.40
2023-02-28T17:39:38.365Z,4.30
2023-02-28T17:41:40.026Z,4.20
2023-02-28T17:43:41.858Z,4.30
2023-02-28T17:45:43.488Z,4.00
2023-02-28T17:47:47.694Z,3.90
2023-02-28T17:49:49.237Z,3.90
2023-02-28T17:51:51.589Z,3.90
2023-02-28T17:53:53.534Z,3.80
2023-02-28T17:55:55.211Z,3.90
2023-02-28T17:57:56.805Z,3.80
2023-02-28T17:59:58.464Z,3.80
2023-02-28T18:02:00.768Z,3.70
2023-02-28T18:04:02.440Z,3.60
2023-02-28T18:06:04.372Z,3.70
2023-02-28T18:08:06.000Z,3.80
2023-02-28T18:10:12.234Z,3.80
2023-02-28T18:12:13.940Z,3.70
2023-02-28T18:14:16.430Z,3.50
2023-02-28T18:16:18.440Z,3.60
2023-02-28T18:18:20.208Z,3.60
2023-02-28T18:20:22.311Z,3.60
2023-02-28T18:22:23.932Z,3.50
2023-02-28T18:24:25.653Z,3.50
2023-02-28T18:26:27.481Z,3.50
2023-02-28T18:28:29.400Z,3.40
2023-02-28T18:30:32.521Z,3.30
2023-02-28T18:32:34.294Z,3.30
2023-02-28T18:34:35.938Z,3.50
2023-02-28T18:36:37.506Z,3.40
2023-02-28T18:38:39.669Z,3.40
2023-02-28T18:40:42.283Z,3.30
2023-02-28T18:42:43.846Z,3.20
2023-02-28T18:44:45.604Z,3.20
2023-02-28T18:46:47.784Z,3.10
2023-02-28T18:48:49.499Z,3.10
2023-02-28T18:50:51.455Z,3.10
2023-02-28T18:52:53.964Z,3.00
2023-02-28T18:54:55.579Z,3.10
2023-02-28T18:56:57.429Z,2.90
2023-02-28T18:58:59.091Z,2.80
2023-02-28T19:01:04.143Z,2.90
2023-02-28T19:03:06.025Z,2.80
2023-02-28T19:05:07.879Z,2.90
2023-02-28T19:07:09.438Z,2.80
2023-02-28T19:09:11.125Z,2.80
2023-02-28T19:11:17.193Z,2.90
2023-02-28T19:13:20.652Z,2.70
2023-02-28T19:15:22.295Z,2.70
2023-02-28T19:17:23.985Z,2.60
2023-02-28T19:19:25.725Z,2.60
2023-02-28T19:21:27.631Z,2.60
2023-02-28T19:23:31.417Z,2.50
2023-02-28T19:25:33.080Z,2.50
2023-02-28T19:27:35.113Z,2.40
2023-02-28T19:29:36.853Z,2.40
2023-02-28T19:31:38.578Z,2.40
2023-02-28T19:33:40.579Z,2.50
2023-02-28T19:35:43.081Z,2.50
2023-02-28T19:37:44.734Z,2.70
2023-02-28T19:39:46.641Z,2.50
2023-02-28T19:41:48.192Z,2.50
2023-02-28T19:43:51.087Z,2.40
2023-02-28T19:45:52.941Z,2.30
2023-02-28T19:47:55.705Z,2.40
2023-02-28T19:49:57.427Z,2.30
2023-02-28T19:51:59.275Z,2.40
2023-02-28T19:54:00.925Z,2.30
2023-02-28T19:56:04.158Z,2.30
2023-02-28T19:58:06.076Z,2.30
2023-02-28T20:00:08.462Z,2.30
2023-02-28T20:02:16.272Z,2.30
2023-02-28T20:04:17.884Z,2.30
2023-02-28T20:06:19.690Z,2.40
2023-02-28T20:08:21.382Z,2.40
2023-02-28T20:10:23.145Z,2.40
2023-02-28T20:12:26.179Z,2.30
2023-02-28T20:14:27.875Z,2.40
2023-02-28T20:16:31.394Z,2.30
2023-02-28T20:18:33.949Z,2.30
2023-02-28T20:20:37.606Z,2.30
2023-02-28T20:22:39.499Z,2.40
2023-02-28T20:24:41.337Z,2.40
2023-02-28T20:26:43.252Z,2.30
2023-02-28T20:28:45.028Z,2.20
2023-02-28T20:30:48.739Z,2.30
2023-02-28T20:32:50.481Z,2.20
2023-02-28T20:34:52.461Z,2.30
2023-02-28T20:36:56.756Z,2.30
2023-02-28T20:39:00.519Z,2.40
2023-02-28T20:41:02.623Z,2.40
2023-02-28T20:43:04.488Z,2.30
2023-02-28T20:45:06.372Z,2.20
2023-02-28T20:47:08.123Z,2.20
2023-02-28T20:49:10.250Z,2.20
2023-02-28T20:51:12.222Z,2.20
2023-02-28T20:53:13.895Z,2.20
2023-02-28T20:55:15.557Z,2.10
2023-02-28T20:57:17.185Z,2.10
2023-02-28T20:59:21.008Z,2.00
2023-02-28T21:01:26.936Z,2.00
2023-02-28T21:03:30.951Z,1.90
2023-02-28T21:05:33.834Z,2.00
2023-02-28T21:07:35.634Z,1.90
2023-02-28T21:09:37.387Z,2.00
2023-02-28T21:11:39.650Z,2.10
2023-02-28T21:13:41.985Z,2.10
2023-02-28T21:15:44.959Z,2.10
2023-02-28T21:17:48.162Z,2.00
2023-02-28T21:19:49.735Z,1.90
2023-02-28T21:21:51.842Z,1.90
2023-02-28T21:23:53.638Z,1.80
2023-02-28T21:25:55.380Z,1.70
2023-02-28T21:27:57.311Z,1.70
2023-02-28T21:29:58.916Z,1.70
2023-02-28T21:32:00.681Z,1.50
2023-02-28T21:34:03.428Z,1.50
2023-02-28T21:36:06.636Z,1.40
2023-02-28T21:38:08.489Z,1.30
2023-02-28T21:40:10.563Z,1.30
2023-02-28T21:42:13.001Z,1.30
2023-02-28T21:44:18.671Z,1.30
2023-02-28T21:46:22.063Z,1.20
2023-02-28T21:48:23.917Z,1.20
2023-02-28T21:50:25.581Z,1.10
2023-02-28T21:52:27.361Z,1.20
2023-02-28T21:54:29.129Z,1.10
2023-02-28T21:56:32.336Z,1.10
2023-02-28T21:58:34.394Z,1.20
2023-02-28T22:00:36.199Z,1.10
2023-02-28T22:02:38.252Z,1.10
2023-02-28T22:04:39.868Z,1.00
2023-02-28T22:06:41.492Z,0.90
2023-02-28T22:08:43.922Z,0.90
2023-02-28T22:10:45.677Z,0.90
2023-02-28T22:12:47.363Z,0.80
2023-02-28T22:14:49.110Z,0.80
2023-02-28T22:16:53.668Z,0.80
2023-02-28T22:18:57.230Z,0.70
2023-02-28T22:20:59.371Z,0.70
2023-02-28T22:23:01.079Z,0.60
2023-02-28T22:25:02.748Z,0.60
2023-02-28T22:27:04.424Z,0.60
2023-02-28T22:29:06.106Z,0.50
2023-02-28T22:31:21.548Z,0.50
2023-02-28T22:33:32.858Z,0.50
2023-02-28T22:35:34.720Z,0.50
2023-02-28T22:37:42.285Z,0.50
2023-02-28T22:39:47.129Z,0.50
2023-02-28T22:41:50.648Z,0.50
2023-02-28T22:43:55.785Z,0.50
2023-02-28T22:46:00.824Z,0.40
2023-02-28T22:48:03.515Z,0.40
2023-02-28T22:50:05.414Z,0.50
2023-02-28T22:52:07.764Z,0.50
2023-02-28T22:54:09.429Z,0.50
2023-02-28T22:56:12.345Z,0.40
2023-02-28T22:58:13.956Z,0.50
2023-02-28T23:00:15.843Z,0.50
2023-02-28T23:02:17.566Z,0.40
2023-02-28T23:04:19.715Z,0.40
2023-02-28T23:06:44.483Z,0.50
2023-02-28T23:08:47.351Z,0.50
2023-02-28T23:10:50.555Z,0.40
2023-02-28T23:12:52.199Z,0.40
2023-02-28T23:14:53.773Z,0.40
2023-02-28T23:16:55.579Z,0.50
2023-02-28T23:18:58.293Z,0.40
2023-02-28T23:20:59.935Z,0.40
2023-02-28T23:23:01.521Z,0.40
2023-02-28T23:25:03.194Z,0.30
2023-02-28T23:27:05.592Z,0.30
2023-02-28T23:29:07.435Z,0.20
2023-02-28T23:31:09.038Z,0.20
2023-02-28T23:33:10.579Z,0.20
2023-02-28T23:35:12.303Z,0.10
2023-02-28T23:37:13.954Z,0.10
2023-02-28T23:39:16.653Z,0.10
2023-02-28T23:41:18.916Z,0.10
2023-02-28T23:43:20.538Z,0.20
2023-02-28T23:45:22.212Z,0.20
2023-02-28T23:47:23.917Z,0.20
2023-02-28T23:49:25.734Z,0.20
2023-02-28T23:51:27.494Z,0.20
2023-02-28T23:53:33.754Z,0.20
2023-02-28T23:55:35.533Z,0.20
2023-02-28T23:57:37.240Z,0.20
2023-02-28T23:59:38.924Z,0.20
